Time;durP1;ratioP1;P1;durP2;ratioP2;P2;SDS_P1;SDS_P2;PMS_P1;PMS_P2;Temp;Humidity;BMP_temperature;BMP_pressure;BME280_temperature;BME280_humidity;BME280_pressure;Samples;Min_cycle;Max_cycle;Signal;HPM_P1;HPM_P2
2023/04/01 00:00:29;;;;;;;2.92;1.02;;;;;;;;;;5073039;28;20070;-84
2023/04/01 00:02:55;;;;;;;2.28;0.90;;;;;;;;;;5081592;28;20443;-83
2023/04/01 00:05:21;;;;;;;2.60;0.80;;;;;;;;;;5078926;28;20032;-84
2023/04/01 00:07:46;;;;;;;3.20;0.60;;;;;;;;;;5078236;28;20032;-84
2023/04/01 00:10:13;;;;;;;1.80;0.65;;;;;;;;;;5082299;28;20044;-84
2023/04/01 00:12:40;;;;;;;1.95;0.60;;;;;;;;;;5081536;28;20040;-83
2023/04/01 00:15:07;;;;;;;1.23;0.55;;;;;;;;;;5080512;28;20066;-83
2023/04/01 00:17:33;;;;;;;1.48;0.57;;;;;;;;;;5082106;28;20096;-83
2023/04/01 00:19:59;;;;;;;1.05;0.50;;;;;;;;;;5080835;28;20055;-83
2023/04/01 00:22:26;;;;;;;4.15;0.70;;;;;;;;;;5080827;28;20040;-83
2023/04/01 00:24:52;;;;;;;2.70;0.70;;;;;;;;;;5059940;28;20080;-84
2023/04/01 00:27:18;;;;;;;3.17;0.60;;;;;;;;;;5081022;28;20025;-82
2023/04/01 00:29:46;;;;;;;1.05;0.60;;;;;;;;;;5058226;28;20121;-83
2023/04/01 00:32:11;;;;;;;4.20;0.68;;;;;;;;;;5080486;28;20496;-83
2023/04/01 00:34:37;;;;;;;1.38;0.60;;;;;;;;;;5080884;28;20043;-84
2023/04/01 00:37:03;;;;;;;1.63;0.40;;;;;;;;;;5080235;28;20085;-84
2023/04/01 00:39:31;;;;;;;2.42;0.50;;;;;;;;;;5081403;28;20024;-82
2023/04/01 00:41:57;;;;;;;2.25;0.50;;;;;;;;;;5073388;28;20066;-84
2023/04/01 00:44:29;;;;;;;2.63;0.70;;;;;;;;;;5084038;28;20032;-83
2023/04/01 00:46:55;;;;;;;1.63;0.50;;;;;;;;;;5084192;28;20052;-83
2023/04/01 00:49:26;;;;;;;2.25;0.60;;;;;;;;;;5084797;28;20035;-82
2023/04/01 00:51:55;;;;;;;2.75;0.50;;;;;;;;;;5042722;28;20097;-83
2023/04/01 00:54:22;;;;;;;2.17;0.47;;;;;;;;;;5088394;22;20058;-84
2023/04/01 00:56:55;;;;;;;0.80;0.30;;;;;;;;;;5078695;28;20040;-83
2023/04/01 00:59:31;;;;;;;2.15;0.43;;;;;;;;;;5075919;28;20036;-85
2023/04/01 01:01:57;;;;;;;1.30;0.50;;;;;;;;;;5085770;28;20488;-84
2023/04/01 01:04:24;;;;;;;3.03;0.50;;;;;;;;;;5068359;28;20032;-84
2023/04/01 01:07:11;;;;;;;1.15;0.32;;;;;;;;;;5078602;28;20034;-85
2023/04/01 01:10:10;;;;;;;0.63;0.30;;;;;;;;;;5073333;28;20574;-85
2023/04/01 01:12:41;;;;;;;0.95;0.30;;;;;;;;;;5049679;28;20043;-85
2023/04/01 01:15:09;;;;;;;1.00;0.32;;;;;;;;;;5043598;28;20028;-87
2023/04/01 01:17:50;;;;;;;1.60;0.45;;;;;;;;;;5059216;28;20485;-87
2023/04/01 01:20:27;;;;;;;1.35;0.30;;;;;;;;;;5074927;28;20037;-85
2023/04/01 01:23:30;;;;;;;1.38;0.40;;;;;;;;;;5066993;28;20040;-85
2023/04/01 01:26:36;;;;;;;1.13;0.50;;;;;;;;;;5071556;28;20040;-85
2023/04/01 01:29:24;;;;;;;2.20;0.60;;;;;;;;;;5056837;28;20040;-86
2023/04/01 01:32:12;;;;;;;1.88;0.70;;;;;;;;;;5023623;28;20087;-87
2023/04/01 01:35:15;;;;;;;0.60;0.47;;;;;;;;;;5045889;28;20040;-85
2023/04/01 01:37:43;;;;;;;0.55;0.47;;;;;;;;;;5049279;28;20060;-86
2023/04/01 01:40:11;;;;;;;1.73;0.50;;;;;;;;;;5075013;28;20156;-87
2023/04/01 01:42:41;;;;;;;0.32;0.22;;;;;;;;;;5059021;28;20028;-86
2023/04/01 01:45:09;;;;;;;2.60;0.50;;;;;;;;;;5074554;28;20058;-85
2023/04/01 01:47:36;;;;;;;0.90;0.38;;;;;;;;;;5062699;28;20420;-85
2023/04/01 01:50:04;;;;;;;1.40;0.50;;;;;;;;;;5057373;28;20091;-85
2023/04/01 01:52:30;;;;;;;1.58;0.40;;;;;;;;;;5050571;28;20140;-84
2023/04/01 01:54:57;;;;;;;0.80;0.25;;;;;;;;;;5064567;28;20107;-84
2023/04/01 01:57:33;;;;;;;2.17;0.40;;;;;;;;;;5060832;28;20035;-86
2023/04/01 02:00:12;;;;;;;1.00;0.45;;;;;;;;;;5040035;28;20024;-86
2023/04/01 02:02:43;;;;;;;1.98;0.35;;;;;;;;;;5089051;28;20032;-85
2023/04/01 02:05:11;;;;;;;0.60;0.30;;;;;;;;;;5064839;28;20036;-87
2023/04/01 02:07:39;;;;;;;1.85;0.50;;;;;;;;;;5079425;28;20043;-85
2023/04/01 02:10:06;;;;;;;0.93;0.30;;;;;;;;;;5047589;28;20522;-86
2023/04/01 02:12:34;;;;;;;1.63;0.30;;;;;;;;;;5064881;28;20040;-85
2023/04/01 02:15:09;;;;;;;0.45;0.38;;;;;;;;;;5067819;28;20518;-85
2023/04/01 02:17:40;;;;;;;0.80;0.43;;;;;;;;;;5042186;28;20033;-84
2023/04/01 02:20:08;;;;;;;0.57;0.30;;;;;;;;;;5041681;28;20029;-85
2023/04/01 02:22:41;;;;;;;1.30;0.45;;;;;;;;;;5056763;28;20259;-86
2023/04/01 02:25:13;;;;;;;1.30;0.60;;;;;;;;;;5059189;28;20024;-86
2023/04/01 02:27:41;;;;;;;0.65;0.43;;;;;;;;;;5053432;28;20032;-85
2023/04/01 02:30:07;;;;;;;1.58;0.43;;;;;;;;;;5060354;28;20039;-86
2023/04/01 02:32:34;;;;;;;1.27;0.60;;;;;;;;;;5046156;28;20054;-85
2023/04/01 02:35:03;;;;;;;2.03;0.63;;;;;;;;;;5059580;28;20036;-85
2023/04/01 02:37:28;;;;;;;1.48;0.47;;;;;;;;;;5080311;28;20040;-85
2023/04/01 02:39:54;;;;;;;1.65;0.68;;;;;;;;;;5047944;28;20033;-87
2023/04/01 02:42:19;;;;;;;1.23;0.60;;;;;;;;;;5085397;28;20060;-84
2023/04/01 02:44:45;;;;;;;1.58;0.60;;;;;;;;;;5062251;28;20029;-85
2023/04/01 02:47:11;;;;;;;1.40;0.30;;;;;;;;;;5044255;28;20032;-85
2023/04/01 02:49:36;;;;;;;2.47;0.50;;;;;;;;;;5048077;28;20029;-84
2023/04/01 02:52:02;;;;;;;1.15;0.60;;;;;;;;;;5059513;28;20037;-85
2023/04/01 02:54:27;;;;;;;0.52;0.32;;;;;;;;;;5062527;28;20028;-85
2023/04/01 02:56:52;;;;;;;1.48;0.60;;;;;;;;;;5063910;28;20031;-85
2023/04/01 02:59:18;;;;;;;1.10;0.57;;;;;;;;;;5071376;28;20095;-85
2023/04/01 03:01:44;;;;;;;2.63;0.98;;;;;;;;;;5064024;28;20043;-83
2023/04/01 03:04:09;;;;;;;1.98;1.05;;;;;;;;;;5052569;28;20036;-83
2023/04/01 03:06:35;;;;;;;2.05;1.17;;;;;;;;;;5081329;28;20085;-85
2023/04/01 03:09:00;;;;;;;3.58;1.40;;;;;;;;;;5046598;28;20436;-85
2023/04/01 03:11:26;;;;;;;2.42;1.40;;;;;;;;;;5047982;28;20040;-86
2023/04/01 03:13:51;;;;;;;2.45;1.65;;;;;;;;;;5060384;28;20036;-87
2023/04/01 03:16:17;;;;;;;2.80;1.58;;;;;;;;;;5061174;28;20028;-86
2023/04/01 03:18:43;;;;;;;1.75;1.23;;;;;;;;;;5077660;28;20075;-84
2023/04/01 03:21:20;;;;;;;2.60;1.00;;;;;;;;;;5068408;28;20170;-84
2023/04/01 03:23:46;;;;;;;1.58;1.00;;;;;;;;;;5082888;28;20056;-85
2023/04/01 03:26:12;;;;;;;2.40;1.05;;;;;;;;;;5066456;28;20081;-84
2023/04/01 03:28:37;;;;;;;0.98;0.88;;;;;;;;;;5061007;28;20032;-83
2023/04/01 03:31:03;;;;;;;1.10;0.75;;;;;;;;;;5065876;28;20108;-83
2023/04/01 03:33:36;;;;;;;1.27;0.70;;;;;;;;;;5064891;28;20567;-85
2023/04/01 03:36:03;;;;;;;0.77;0.65;;;;;;;;;;5064131;28;20067;-84
2023/04/01 03:38:28;;;;;;;2.08;0.70;;;;;;;;;;5061116;28;20036;-84
2023/04/01 03:40:54;;;;;;;2.15;1.05;;;;;;;;;;5063453;28;20078;-86
2023/04/01 03:43:20;;;;;;;1.90;0.50;;;;;;;;;;5045495;28;20035;-85
2023/04/01 03:45:47;;;;;;;1.20;0.50;;;;;;;;;;5042883;28;20032;-84
2023/04/01 03:48:14;;;;;;;2.72;0.65;;;;;;;;;;5071901;28;20032;-85
2023/04/01 03:50:40;;;;;;;0.52;0.43;;;;;;;;;;5045090;28;20083;-88
2023/04/01 03:53:05;;;;;;;0.30;0.30;;;;;;;;;;5064020;28;20037;-87
2023/04/01 03:55:31;;;;;;;1.10;0.55;;;;;;;;;;5064339;28;20408;-85
2023/04/01 03:57:56;;;;;;;0.77;0.28;;;;;;;;;;5043722;28;20041;-85
2023/04/01 04:00:22;;;;;;;1.73;0.70;;;;;;;;;;5061978;28;20024;-85
2023/04/01 04:02:55;;;;;;;0.98;0.50;;;;;;;;;;5055644;28;20132;-84
2023/04/01 04:05:26;;;;;;;0.43;0.28;;;;;;;;;;5054307;28;20060;-85
2023/04/01 04:07:53;;;;;;;0.88;0.50;;;;;;;;;;5054569;28;20037;-85
2023/04/01 04:10:19;;;;;;;1.00;0.50;;;;;;;;;;5030679;28;20040;-84
2023/04/01 04:12:45;;;;;;;1.67;0.70;;;;;;;;;;5047514;28;20032;-86
2023/04/01 04:15:11;;;;;;;1.50;0.82;;;;;;;;;;5073664;28;20093;-85
2023/04/01 04:17:37;;;;;;;2.85;0.90;;;;;;;;;;5063348;28;20127;-85
2023/04/01 04:20:03;;;;;;;1.67;0.90;;;;;;;;;;5080207;28;20037;-85
2023/04/01 04:22:29;;;;;;;1.67;1.00;;;;;;;;;;5060318;28;20035;-86
2023/04/01 04:24:55;;;;;;;1.55;0.90;;;;;;;;;;5066603;28;20036;-85
2023/04/01 04:27:20;;;;;;;3.10;1.10;;;;;;;;;;5064835;28;20086;-85
2023/04/01 04:30:07;;;;;;;2.70;0.80;;;;;;;;;;5073500;28;20048;-85
2023/04/01 04:32:33;;;;;;;0.88;0.50;;;;;;;;;;5048240;28;20526;-85
2023/04/01 04:34:59;;;;;;;0.77;0.60;;;;;;;;;;5072951;28;20095;-85
2023/04/01 04:37:25;;;;;;;1.02;0.60;;;;;;;;;;5066388;28;20070;-85
2023/04/01 04:39:52;;;;;;;0.70;0.63;;;;;;;;;;5062344;28;20124;-84
2023/04/01 04:42:17;;;;;;;1.00;0.70;;;;;;;;;;5061725;28;20077;-84
2023/04/01 04:44:43;;;;;;;1.08;0.70;;;;;;;;;;5075601;28;20036;-85
2023/04/01 04:47:10;;;;;;;0.50;0.50;;;;;;;;;;5069712;28;20417;-84
2023/04/01 04:49:35;;;;;;;0.75;0.57;;;;;;;;;;5040088;28;20039;-85
2023/04/01 04:52:05;;;;;;;0.75;0.50;;;;;;;;;;5043991;28;20229;-85
2023/04/01 04:54:31;;;;;;;0.88;0.60;;;;;;;;;;5048920;28;20033;-85
2023/04/01 04:56:59;;;;;;;1.35;0.80;;;;;;;;;;5055435;28;20051;-84
2023/04/01 04:59:26;;;;;;;1.02;0.70;;;;;;;;;;5069018;28;20028;-86
2023/04/01 05:02:01;;;;;;;0.60;0.60;;;;;;;;;;5045756;28;20152;-84
2023/04/01 05:04:27;;;;;;;1.58;0.68;;;;;;;;;;5055649;28;20514;-85
2023/04/01 05:06:53;;;;;;;0.50;0.50;;;;;;;;;;5076166;28;20499;-85
2023/04/01 05:09:19;;;;;;;1.48;0.70;;;;;;;;;;5071092;28;20028;-84
2023/04/01 05:11:44;;;;;;;2.25;0.60;;;;;;;;;;5062927;28;20436;-86
2023/04/01 05:14:14;;;;;;;1.58;1.00;;;;;;;;;;5062266;28;20040;-84
2023/04/01 05:16:42;;;;;;;1.52;0.85;;;;;;;;;;5071734;28;20401;-86
2023/04/01 05:19:08;;;;;;;2.28;0.93;;;;;;;;;;5037590;28;20037;-85
2023/04/01 05:21:33;;;;;;;1.38;1.05;;;;;;;;;;5061348;28;20374;-85
2023/04/01 05:23:59;;;;;;;2.10;0.85;;;;;;;;;;5042913;28;20028;-86
2023/04/01 05:26:25;;;;;;;1.20;1.00;;;;;;;;;;5070831;28;20060;-84
2023/04/01 05:28:50;;;;;;;1.27;1.00;;;;;;;;;;5062233;28;20052;-84
2023/04/01 05:31:16;;;;;;;1.20;0.80;;;;;;;;;;5058182;28;20117;-85
2023/04/01 05:33:44;;;;;;;1.30;0.80;;;;;;;;;;5046184;28;20044;-84
2023/04/01 05:36:13;;;;;;;1.50;0.90;;;;;;;;;;5071069;28;20035;-85
2023/04/01 05:38:39;;;;;;;1.00;0.80;;;;;;;;;;5069703;28;20032;-85
2023/04/01 05:41:07;;;;;;;1.58;1.00;;;;;;;;;;5044443;28;20029;-85
2023/04/01 05:43:37;;;;;;;1.17;0.80;;;;;;;;;;5060018;28;20512;-84
2023/04/01 05:46:21;;;;;;;0.55;0.50;;;;;;;;;;5062919;28;20123;-85
2023/04/01 05:48:55;;;;;;;1.20;0.75;;;;;;;;;;5069698;28;20043;-83
2023/04/01 05:51:22;;;;;;;1.38;0.73;;;;;;;;;;5071524;28;20067;-84
2023/04/01 05:53:48;;;;;;;2.03;0.85;;;;;;;;;;5052210;28;20067;-84
2023/04/01 05:56:13;;;;;;;0.95;0.70;;;;;;;;;;5067912;28;20480;-85
2023/04/01 05:58:50;;;;;;;0.65;0.65;;;;;;;;;;5059575;28;20028;-85
2023/04/01 06:01:16;;;;;;;0.93;0.70;;;;;;;;;;5070684;28;20131;-85
2023/04/01 06:03:42;;;;;;;1.25;0.70;;;;;;;;;;5047285;28;20063;-85
2023/04/01 06:06:15;;;;;;;0.88;0.60;;;;;;;;;;5061098;28;20036;-85
2023/04/01 06:08:41;;;;;;;0.80;0.70;;;;;;;;;;5071576;28;20029;-85
2023/04/01 06:11:10;;;;;;;3.88;1.00;;;;;;;;;;5074085;28;20039;-87
2023/04/01 06:13:42;;;;;;;0.80;0.70;;;;;;;;;;5043501;28;20041;-85
2023/04/01 06:16:29;;;;;;;0.80;0.70;;;;;;;;;;5037640;28;20028;-86
2023/04/01 06:19:13;;;;;;;0.70;0.70;;;;;;;;;;5067255;28;20060;-85
2023/04/01 06:22:08;;;;;;;0.55;0.50;;;;;;;;;;5061259;28;20445;-85
2023/04/01 06:25:17;;;;;;;1.50;0.63;;;;;;;;;;5058385;28;20558;-85
2023/04/01 06:27:54;;;;;;;0.73;0.50;;;;;;;;;;4989734;28;20119;-86
2023/04/01 06:30:29;;;;;;;1.27;0.60;;;;;;;;;;4975912;28;20062;-85
2023/04/01 06:33:14;;;;;;;1.20;0.50;;;;;;;;;;5011555;28;20036;-86
2023/04/01 06:36:25;;;;;;;1.58;0.60;;;;;;;;;;5060402;28;20071;-86
2023/04/01 06:39:06;;;;;;;1.10;0.50;;;;;;;;;;5074998;28;20056;-85
2023/04/01 06:41:35;;;;;;;1.65;0.90;;;;;;;;;;5059517;28;20032;-84
2023/04/01 06:44:23;;;;;;;2.45;1.38;;;;;;;;;;5045655;28;20029;-85
2023/04/01 06:48:04;;;;;;;1.85;0.90;;;;;;;;;;5071425;28;20641;-83
2023/04/01 06:51:06;;;;;;;0.90;0.57;;;;;;;;;;5006968;28;20080;-85
2023/04/01 06:54:04;;;;;;;;;;;;;;;;;;5018927;28;20530;-82
2023/04/01 06:57:31;;;;;;;2.08;1.10;;;;;;;;;;5051574;28;19991;-84
2023/04/01 07:00:00;;;;;;;1.50;0.60;;;;;;;;;;5061327;28;20040;-84
2023/04/01 07:02:39;;;;;;;2.83;1.40;;;;;;;;;;5048778;22;20081;-82
2023/04/01 07:05:06;;;;;;;2.95;1.40;;;;;;;;;;5041365;28;20043;-82
2023/04/01 07:07:43;;;;;;;3.05;1.23;;;;;;;;;;5014192;28;20049;-82
2023/04/01 07:10:19;;;;;;;1.23;0.90;;;;;;;;;;5025729;28;20513;-83
2023/04/01 07:13:11;;;;;;;1.20;0.90;;;;;;;;;;5019988;28;20202;-83
2023/04/01 07:16:12;;;;;;;1.75;0.80;;;;;;;;;;5002973;28;20033;-83
2023/04/01 07:18:51;;;;;;;1.48;0.70;;;;;;;;;;4996982;28;20041;-82
2023/04/01 07:21:26;;;;;;;1.15;0.95;;;;;;;;;;4998714;28;20442;-82
2023/04/01 07:24:00;;;;;;;0.80;0.68;;;;;;;;;;5002911;28;20387;-81
2023/04/01 07:26:34;;;;;;;1.50;0.80;;;;;;;;;;5007670;28;20030;-81
2023/04/01 07:29:14;;;;;;;1.85;0.90;;;;;;;;;;5011553;28;20037;-81
2023/04/01 07:32:17;;;;;;;0.73;0.65;;;;;;;;;;5003975;28;20125;-82
2023/04/01 07:35:21;;;;;;;1.10;0.80;;;;;;;;;;5002606;28;20033;-83
2023/04/01 07:38:05;;;;;;;1.67;0.70;;;;;;;;;;5011523;28;20037;-82
2023/04/01 07:40:40;;;;;;;2.72;1.13;;;;;;;;;;4992425;28;20041;-82
2023/04/01 07:43:05;;;;;;;0.88;0.70;;;;;;;;;;4996663;28;20124;-82
2023/04/01 07:45:41;;;;;;;1.35;0.70;;;;;;;;;;5013375;28;20033;-82
2023/04/01 07:48:22;;;;;;;0.75;0.63;;;;;;;;;;5007978;28;20077;-82
2023/04/01 07:50:54;;;;;;;1.08;0.55;;;;;;;;;;5012323;28;20034;-82
2023/04/01 07:53:45;;;;;;;0.63;0.52;;;;;;;;;;5010467;28;20058;-82
2023/04/01 07:56:30;;;;;;;0.90;0.50;;;;;;;;;;4995111;28;20038;-82
2023/04/01 07:59:14;;;;;;;0.93;0.38;;;;;;;;;;5008914;28;20057;-82
2023/04/01 08:02:26;;;;;;;0.65;0.40;;;;;;;;;;4997369;28;20368;-82
2023/04/01 08:05:04;;;;;;;0.75;0.43;;;;;;;;;;4973458;28;20042;-82
2023/04/01 08:07:39;;;;;;;2.35;0.40;;;;;;;;;;4966988;28;20033;-82
2023/04/01 08:10:57;;;;;;;2.35;0.30;;;;;;;;;;4990224;28;20038;-82
2023/04/01 08:13:55;;;;;;;0.30;0.25;;;;;;;;;;4977804;28;20383;-81
2023/04/01 08:17:16;;;;;;;0.43;0.30;;;;;;;;;;4966915;28;20050;-82
2023/04/01 08:20:10;;;;;;;0.28;0.20;;;;;;;;;;4991493;28;20372;-81
2023/04/01 08:22:48;;;;;;;0.68;0.30;;;;;;;;;;4989155;28;20551;-81
2023/04/01 08:28:15;;;;;;;0.45;0.38;;;;;;;;;;5846216;22;20305;-82
2023/04/01 08:31:00;;;;;;;0.95;0.20;;;;;;;;;;4999669;28;20057;-81
2023/04/01 08:33:29;;;;;;;0.20;0.20;;;;;;;;;;5039097;28;20041;-82
2023/04/01 08:36:15;;;;;;;0.75;0.30;;;;;;;;;;5032314;28;20018;-81
2023/04/01 08:38:49;;;;;;;1.27;0.40;;;;;;;;;;5024756;28;20030;-81
2023/04/01 08:41:28;;;;;;;0.57;0.43;;;;;;;;;;5014802;28;20437;-81
2023/04/01 08:44:32;;;;;;;1.05;0.40;;;;;;;;;;4992957;28;20529;-81
2023/04/01 08:47:16;;;;;;;;;;;;;;;;;;5026433;28;20038;-83
2023/04/01 08:49:54;;;;;;;0.43;0.20;;;;;;;;;;5004897;28;19992;-81
2023/04/01 08:52:49;;;;;;;1.83;1.05;;;;;;;;;;4997937;28;20065;-82
2023/04/01 08:55:39;;;;;;;2.88;1.20;;;;;;;;;;5005608;28;20041;-83
2023/04/01 08:58:33;;;;;;;2.17;1.20;;;;;;;;;;5025771;28;20407;-82
2023/04/01 09:01:21;;;;;;;1.50;0.77;;;;;;;;;;5018916;28;20050;-81
2023/04/01 09:03:55;;;;;;;1.90;1.00;;;;;;;;;;5018598;28;20058;-81
2023/04/01 09:06:23;;;;;;;2.13;1.33;;;;;;;;;;5030653;28;20045;-82
2023/04/01 09:09:09;;;;;;;0.60;0.60;;;;;;;;;;5012866;28;20458;-84
2023/04/01 09:11:38;;;;;;;0.80;0.70;;;;;;;;;;5007733;28;20044;-82
2023/04/01 09:14:38;;;;;;;1.13;0.55;;;;;;;;;;5016338;28;20537;-81
2023/04/01 09:17:24;;;;;;;0.93;0.80;;;;;;;;;;5029237;28;20096;-84
2023/04/01 09:22:37;;;;;;;0.82;0.50;;;;;;;;;;5034670;28;20061;-86
2023/04/01 09:25:35;;;;;;;0.65;0.30;;;;;;;;;;5038511;28;20523;-84
2023/04/01 09:28:17;;;;;;;1.02;0.52;;;;;;;;;;5025253;28;20053;-82
2023/04/01 09:31:14;;;;;;;1.55;0.45;;;;;;;;;;5030243;28;20033;-85
2023/04/01 09:34:07;;;;;;;0.68;0.50;;;;;;;;;;5014732;28;20545;-84
2023/04/01 09:37:17;;;;;;;1.65;0.35;;;;;;;;;;5029935;28;20044;-83
2023/04/01 09:39:53;;;;;;;2.28;0.30;;;;;;;;;;5013385;28;20049;-84
2023/04/01 09:42:37;;;;;;;0.45;0.40;;;;;;;;;;5028463;28;20073;-84
2023/04/01 09:45:42;;;;;;;0.38;0.35;;;;;;;;;;5029658;28;20042;-84
2023/04/01 09:48:14;;;;;;;0.40;0.30;;;;;;;;;;5004099;28;20042;-83
2023/04/01 09:51:09;;;;;;;0.30;0.30;;;;;;;;;;5025100;28;20037;-84
2023/04/01 09:54:02;;;;;;;0.77;0.45;;;;;;;;;;5015171;28;20045;-83
2023/04/01 09:56:52;;;;;;;2.83;0.30;;;;;;;;;;5031067;28;20064;-82
2023/04/01 09:59:29;;;;;;;0.40;0.30;;;;;;;;;;5030829;28;20568;-80
2023/04/01 10:02:40;;;;;;;2.03;1.00;;;;;;;;;;5015840;28;20418;-82
2023/04/01 10:05:34;;;;;;;0.95;0.60;;;;;;;;;;5031769;28;20100;-83
2023/04/01 10:08:22;;;;;;;1.02;0.50;;;;;;;;;;5031622;28;20057;-82
2023/04/01 10:11:09;;;;;;;2.15;0.65;;;;;;;;;;5032526;28;20112;-83
2023/04/01 10:14:00;;;;;;;0.93;0.70;;;;;;;;;;5030695;28;20038;-83
2023/04/01 10:16:48;;;;;;;1.48;0.40;;;;;;;;;;5029871;28;20042;-82
2023/04/01 10:19:32;;;;;;;0.73;0.50;;;;;;;;;;5029435;28;20045;-83
2023/04/01 10:22:07;;;;;;;0.47;0.47;;;;;;;;;;5032052;28;20568;-82
2023/04/01 10:25:13;;;;;;;3.28;0.40;;;;;;;;;;5031936;28;20034;-82
2023/04/01 10:28:17;;;;;;;0.55;0.40;;;;;;;;;;5028879;28;20096;-85
2023/04/01 10:31:39;;;;;;;0.60;0.50;;;;;;;;;;5016661;28;20041;-83
2023/04/01 10:34:14;;;;;;;0.50;0.40;;;;;;;;;;5029672;28;20069;-82
2023/04/01 10:36:57;;;;;;;2.47;0.40;;;;;;;;;;5030642;28;20030;-82
2023/04/01 10:39:33;;;;;;;0.57;0.30;;;;;;;;;;5030950;28;20037;-83
2023/04/01 10:42:15;;;;;;;0.50;0.30;;;;;;;;;;5014467;28;20034;-81
2023/04/01 10:45:22;;;;;;;0.40;0.40;;;;;;;;;;5015345;28;20041;-83
2023/04/01 10:48:10;;;;;;;0.60;0.32;;;;;;;;;;5029079;28;20121;-82
2023/04/01 10:51:16;;;;;;;2.22;0.30;;;;;;;;;;5023829;28;20160;-86
2023/04/01 10:54:30;;;;;;;0.88;0.60;;;;;;;;;;4965549;28;20188;-85
2023/04/01 10:57:40;;;;;;;0.25;0.20;;;;;;;;;;5013478;28;20049;-84
2023/04/01 11:00:46;;;;;;;0.28;0.20;;;;;;;;;;5011155;28;20062;-86
2023/04/01 11:04:08;;;;;;;0.73;0.40;;;;;;;;;;5025941;28;20053;-85
2023/04/01 11:06:55;;;;;;;0.45;0.32;;;;;;;;;;5018230;28;20110;-82
2023/04/01 11:09:51;;;;;;;2.30;0.52;;;;;;;;;;5032075;28;20041;-82
2023/04/01 11:12:46;;;;;;;0.28;0.28;;;;;;;;;;5031805;28;20060;-83
2023/04/01 11:15:18;;;;;;;0.43;0.32;;;;;;;;;;5027910;28;20038;-82
2023/04/01 11:18:21;;;;;;;0.32;0.15;;;;;;;;;;5017459;28;20034;-83
2023/04/01 11:21:13;;;;;;;0.53;0.30;;;;;;;;;;5029884;28;20045;-83
2023/04/01 11:23:41;;;;;;;0.50;0.40;;;;;;;;;;5031319;28;20041;-84
2023/04/01 11:26:40;;;;;;;0.30;0.20;;;;;;;;;;5030853;28;20505;-83
2023/04/01 11:29:47;;;;;;;2.35;0.40;;;;;;;;;;5031636;28;20103;-83
2023/04/01 11:33:10;;;;;;;0.50;0.30;;;;;;;;;;5030418;28;20103;-85
2023/04/01 11:35:59;;;;;;;0.20;0.20;;;;;;;;;;4985495;28;20052;-85
2023/04/01 11:38:42;;;;;;;1.02;0.28;;;;;;;;;;5029989;28;20065;-85
2023/04/01 11:41:57;;;;;;;0.45;0.28;;;;;;;;;;4956113;29;20043;-85
2023/04/01 11:45:07;;;;;;;0.98;0.30;;;;;;;;;;5013714;28;20415;-84
2023/04/01 11:47:45;;;;;;;0.68;0.30;;;;;;;;;;5031635;28;20041;-84
2023/04/01 11:50:17;;;;;;;;;;;;;;;;;;5016996;28;20026;-81
2023/04/01 11:53:16;;;;;;;1.40;0.28;;;;;;;;;;5015427;28;19937;-83
2023/04/01 11:56:06;;;;;;;0.20;0.10;;;;;;;;;;5014314;28;20037;-84
2023/04/01 11:58:44;;;;;;;0.35;0.35;;;;;;;;;;5031742;28;20026;-85
2023/04/01 12:01:38;;;;;;;0.20;0.20;;;;;;;;;;5031332;28;20401;-83
2023/04/01 12:04:09;;;;;;;0.95;0.40;;;;;;;;;;5008263;28;20115;-86
2023/04/01 12:06:35;;;;;;;3.45;0.57;;;;;;;;;;5039845;23;20136;-85
2023/04/01 12:09:04;;;;;;;1.73;0.52;;;;;;;;;;5034816;28;20061;-84
2023/04/01 12:11:41;;;;;;;0.30;0.25;;;;;;;;;;5028952;28;20072;-84
2023/04/01 12:14:21;;;;;;;0.82;0.73;;;;;;;;;;5023132;28;20029;-84
2023/04/01 12:16:59;;;;;;;0.35;0.20;;;;;;;;;;5019277;28;20082;-85
2023/04/01 12:19:52;;;;;;;0.55;0.40;;;;;;;;;;5013092;28;20033;-83
2023/04/01 12:22:46;;;;;;;0.53;0.10;;;;;;;;;;5021055;28;20046;-86
2023/04/01 12:25:20;;;;;;;0.30;0.30;;;;;;;;;;5024590;28;20055;-84
2023/04/01 12:28:04;;;;;;;0.32;0.20;;;;;;;;;;5020495;28;20343;-84
2023/04/01 12:30:50;;;;;;;0.75;0.25;;;;;;;;;;5025125;28;20030;-83
2023/04/01 12:33:31;;;;;;;0.17;0.17;;;;;;;;;;5019272;28;20462;-85
2023/04/01 12:36:12;;;;;;;0.55;0.30;;;;;;;;;;5029053;28;20045;-82
2023/04/01 12:39:11;;;;;;;0.30;0.30;;;;;;;;;;5046468;28;20042;-82
2023/04/01 12:41:37;;;;;;;0.57;0.20;;;;;;;;;;5024582;28;20474;-82
2023/04/01 12:44:09;;;;;;;0.20;0.17;;;;;;;;;;5017792;28;20041;-84
2023/04/01 12:46:56;;;;;;;0.43;0.30;;;;;;;;;;5015796;28;20426;-83
2023/04/01 12:49:31;;;;;;;0.63;0.20;;;;;;;;;;5016852;28;20040;-83
2023/04/01 12:52:11;;;;;;;0.20;0.20;;;;;;;;;;5024039;28;20044;-85
2023/04/01 12:55:15;;;;;;;0.25;0.20;;;;;;;;;;5024086;28;20048;-83
2023/04/01 12:58:31;;;;;;;0.25;0.15;;;;;;;;;;4995223;28;20041;-82
2023/04/01 13:01:22;;;;;;;0.45;0.10;;;;;;;;;;4998664;28;20463;-84
2023/04/01 13:04:29;;;;;;;0.00;0.00;;;;;;;;;;5008888;28;20038;-85
2023/04/01 13:07:19;;;;;;;0.20;0.10;;;;;;;;;;5021013;28;20061;-85
2023/04/01 13:10:05;;;;;;;0.10;0.10;;;;;;;;;;5021367;28;20136;-83
2023/04/01 13:13:06;;;;;;;0.10;0.10;;;;;;;;;;5030801;28;20052;-85
2023/04/01 13:15:43;;;;;;;0.82;0.10;;;;;;;;;;5010131;28;20443;-86
2023/04/01 13:18:43;;;;;;;0.20;0.10;;;;;;;;;;5014092;28;20144;-84
2023/04/01 13:21:21;;;;;;;0.00;0.00;;;;;;;;;;5044682;28;20044;-85
2023/04/01 13:24:10;;;;;;;0.30;0.20;;;;;;;;;;5011816;28;20040;-85
2023/04/01 13:27:03;;;;;;;0.63;0.20;;;;;;;;;;5016775;28;20050;-85
2023/04/01 13:29:36;;;;;;;0.10;0.10;;;;;;;;;;5018846;28;20045;-86
2023/04/01 13:32:35;;;;;;;0.00;0.00;;;;;;;;;;5010736;28;20037;-86
2023/04/01 13:35:01;;;;;;;0.35;0.20;;;;;;;;;;5038077;28;20053;-84
2023/04/01 13:37:45;;;;;;;0.00;0.00;;;;;;;;;;5019636;28;20042;-85
2023/04/01 13:40:30;;;;;;;0.00;0.00;;;;;;;;;;5015518;28;20076;-84
2023/04/01 13:43:03;;;;;;;0.03;0.03;;;;;;;;;;5034456;28;20029;-85
2023/04/01 13:45:32;;;;;;;;;;;;;;;;;;5023450;28;20037;-83
2023/04/01 13:48:17;;;;;;;0.30;0.00;;;;;;;;;;5023089;28;19913;-86
2023/04/01 13:50:58;;;;;;;0.00;0.00;;;;;;;;;;5019275;28;20046;-83
2023/04/01 13:53:29;;;;;;;0.08;0.00;;;;;;;;;;5027442;28;20053;-85
2023/04/01 13:56:14;;;;;;;0.00;0.00;;;;;;;;;;5030849;28;20038;-86
2023/04/01 13:58:55;;;;;;;0.10;0.10;;;;;;;;;;5024626;28;20033;-84
2023/04/01 14:01:43;;;;;;;0.15;0.10;;;;;;;;;;5013519;28;20096;-87
2023/04/01 14:04:53;;;;;;;2.03;0.10;;;;;;;;;;5028108;28;20041;-84
2023/04/01 14:07:39;;;;;;;0.32;0.20;;;;;;;;;;4999815;28;20050;-84
2023/04/01 14:10:34;;;;;;;0.20;0.10;;;;;;;;;;5023404;28;20026;-83
2023/04/01 14:13:12;;;;;;;0.13;0.13;;;;;;;;;;5017903;28;20087;-84
2023/04/01 14:16:04;;;;;;;0.20;0.20;;;;;;;;;;5027126;28;20116;-85
2023/04/01 14:18:38;;;;;;;0.10;0.10;;;;;;;;;;5021609;28;20037;-85
2023/04/01 14:21:28;;;;;;;1.30;0.13;;;;;;;;;;5014388;28;20557;-85
2023/04/01 14:24:21;;;;;;;0.10;0.10;;;;;;;;;;5023386;28;20132;-82
2023/04/01 14:27:14;;;;;;;0.20;0.20;;;;;;;;;;5027954;28;20041;-84
2023/04/01 14:29:55;;;;;;;0.30;0.20;;;;;;;;;;5021454;28;20025;-85
2023/04/01 14:32:58;;;;;;;0.22;0.10;;;;;;;;;;5010603;28;20041;-85
2023/04/01 14:35:38;;;;;;;0.10;0.10;;;;;;;;;;5028437;28;20034;-84
2023/04/01 14:38:34;;;;;;;0.13;0.13;;;;;;;;;;5031246;28;20045;-85
2023/04/01 14:41:32;;;;;;;0.17;0.10;;;;;;;;;;5027057;28;20563;-84
2023/04/01 14:44:15;;;;;;;0.10;0.10;;;;;;;;;;5008850;28;20139;-85
2023/04/01 14:46:41;;;;;;;;;;;;;;;;;;5021225;28;20037;-83
2023/04/01 14:49:32;;;;;;;0.25;0.10;;;;;;;;;;5032836;28;19932;-85
2023/04/01 14:52:15;;;;;;;0.00;0.00;;;;;;;;;;5016164;28;20416;-84
2023/04/01 14:54:44;;;;;;;0.10;0.10;;;;;;;;;;5020828;28;20034;-84
2023/04/01 14:57:23;;;;;;;0.10;0.10;;;;;;;;;;5027144;28;20108;-83
2023/04/01 14:59:58;;;;;;;0.10;0.10;;;;;;;;;;5039700;28;20031;-83
2023/04/01 15:02:58;;;;;;;0.08;0.08;;;;;;;;;;5022883;28;20033;-83
2023/04/01 15:05:47;;;;;;;2.30;0.20;;;;;;;;;;5024884;28;20037;-84
2023/04/01 15:08:31;;;;;;;0.03;0.03;;;;;;;;;;5031532;28;20036;-85
2023/04/01 15:11:15;;;;;;;0.00;0.00;;;;;;;;;;5025515;28;20042;-82
2023/04/01 15:14:10;;;;;;;0.00;0.00;;;;;;;;;;5020565;28;20034;-85
2023/04/01 15:16:57;;;;;;;0.10;0.10;;;;;;;;;;4999963;28;20051;-84
2023/04/01 15:19:45;;;;;;;0.10;0.10;;;;;;;;;;5027961;28;20537;-84
2023/04/01 15:22:26;;;;;;;0.10;0.10;;;;;;;;;;5023233;28;20096;-84
2023/04/01 15:25:18;;;;;;;0.00;0.00;;;;;;;;;;5015290;28;20054;-84
2023/04/01 15:28:09;;;;;;;0.20;0.08;;;;;;;;;;5013192;28;20633;-84
2023/04/01 15:30:40;;;;;;;0.10;0.10;;;;;;;;;;5043930;28;20112;-85
2023/04/01 15:33:27;;;;;;;0.10;0.10;;;;;;;;;;5022200;28;20069;-84
2023/04/01 15:36:43;;;;;;;0.00;0.00;;;;;;;;;;4999205;28;20044;-86
2023/04/01 15:39:37;;;;;;;0.10;0.10;;;;;;;;;;4970227;28;20057;-83
2023/04/01 15:42:17;;;;;;;0.00;0.00;;;;;;;;;;4972478;28;20124;-82
2023/04/01 15:44:46;;;;;;;0.10;0.10;;;;;;;;;;5012625;28;20065;-83
2023/04/01 15:47:53;;;;;;;0.75;0.10;;;;;;;;;;5012783;28;20371;-86
2023/04/01 15:50:30;;;;;;;0.03;0.03;;;;;;;;;;5026545;28;20049;-86
2023/04/01 15:53:15;;;;;;;0.10;0.10;;;;;;;;;;5022159;28;20057;-84
2023/04/01 15:55:53;;;;;;;0.10;0.10;;;;;;;;;;5009308;28;20147;-84
2023/04/01 15:58:39;;;;;;;0.45;0.10;;;;;;;;;;5018876;28;20448;-85
2023/04/01 16:01:27;;;;;;;0.75;0.20;;;;;;;;;;5014022;28;20041;-84
2023/04/01 16:04:37;;;;;;;0.15;0.15;;;;;;;;;;5031312;28;20041;-87
2023/04/01 16:07:09;;;;;;;1.20;1.00;;;;;;;;;;5027349;28;20080;-84